createdAt,value
2018-07-09T00:01:43.135Z,5.97
2018-07-09T00:04:12.505Z,6.27
2018-07-09T00:06:41.872Z,5.93
2018-07-09T00:09:11.199Z,5.23
2018-07-09T00:11:40.567Z,5.93
2018-07-09T00:14:09.883Z,5.50
2018-07-09T00:16:39.286Z,6.20
2018-07-09T00:19:08.629Z,5.30
2018-07-09T00:21:38.003Z,6.20
2018-07-09T00:24:07.347Z,5.90
2018-07-09T00:26:36.767Z,6.03
2018-07-09T00:29:06.079Z,6.70
2018-07-09T00:31:35.449Z,6.23
2018-07-09T00:34:04.790Z,6.30
2018-07-09T00:36:34.158Z,5.77
2018-07-09T00:39:03.965Z,6.47
2018-07-09T00:41:34.758Z,6.50
2018-07-09T00:44:04.076Z,6.70
2018-07-09T00:46:33.456Z,6.70
2018-07-09T00:49:02.560Z,6.40
2018-07-09T00:51:32.159Z,7.97
2018-07-09T00:54:01.506Z,6.87
2018-07-09T00:56:30.899Z,6.73
2018-07-09T00:59:00.922Z,6.97
2018-07-09T01:01:30.278Z,7.03
2018-07-09T01:03:59.267Z,7.47
2018-07-09T01:06:28.495Z,6.43
2018-07-09T01:08:57.772Z,7.17
2018-07-09T01:11:32.348Z,7.37
2018-07-09T01:14:01.587Z,7.13
2018-07-09T01:16:30.931Z,6.73
2018-07-09T01:19:00.271Z,7.47
2018-07-09T01:21:29.600Z,7.10
2018-07-09T01:23:58.919Z,6.43
2018-07-09T01:26:28.293Z,6.20
2018-07-09T01:28:58.874Z,7.47
2018-07-09T01:31:28.450Z,7.50
2018-07-09T01:33:57.729Z,6.80
2018-07-09T01:36:27.476Z,6.83
2018-07-09T01:38:56.787Z,6.80
2018-07-09T01:41:26.096Z,6.97
2018-07-09T01:43:55.402Z,7.90
2018-07-09T01:46:24.693Z,7.00
2018-07-09T01:48:53.995Z,6.83
2018-07-09T01:51:24.427Z,7.50
2018-07-09T01:53:53.746Z,6.90
2018-07-09T01:56:22.691Z,6.80
2018-07-09T01:58:51.948Z,6.67
2018-07-09T02:01:21.267Z,7.10
2018-07-09T02:03:50.647Z,6.80
2018-07-09T02:06:19.947Z,6.80
2018-07-09T02:08:49.295Z,7.23
2018-07-09T02:11:18.602Z,7.87
2018-07-09T02:13:47.940Z,7.60
2018-07-09T02:16:17.244Z,6.80
2018-07-09T02:18:46.610Z,7.07
2018-07-09T02:21:17.042Z,7.00
2018-07-09T02:23:46.401Z,7.00
2018-07-09T02:26:15.691Z,7.60
2018-07-09T02:28:45.055Z,7.20
2018-07-09T02:31:14.769Z,7.30
2018-07-09T02:33:44.141Z,8.00
2018-07-09T02:36:13.447Z,7.40
2018-07-09T02:38:42.772Z,7.97
2018-07-09T02:41:11.778Z,7.00
2018-07-09T02:43:41.084Z,7.37
2018-07-09T02:46:10.380Z,7.50
2018-07-09T02:48:39.299Z,7.80
2018-07-09T02:51:08.521Z,7.80
2018-07-09T02:53:37.811Z,8.23
2018-07-09T02:56:07.128Z,7.03
2018-07-09T02:58:36.453Z,6.80
2018-07-09T03:01:06.108Z,7.20
2018-07-09T03:03:35.423Z,7.43
2018-07-09T03:06:04.824Z,7.80
2018-07-09T03:08:34.147Z,7.50
2018-07-09T03:11:03.548Z,8.53
2018-07-09T03:13:32.871Z,7.80
2018-07-09T03:16:02.282Z,8.50
2018-07-09T03:18:32.108Z,7.77
2018-07-09T03:21:01.495Z,7.30
2018-07-09T03:23:30.849Z,8.00
2018-07-09T03:26:00.197Z,7.10
2018-07-09T03:28:29.530Z,7.40
2018-07-09T03:30:58.901Z,7.47
2018-07-09T03:33:28.214Z,7.80
2018-07-09T03:35:57.562Z,8.37
2018-07-09T03:38:26.879Z,8.30
2018-07-09T03:40:56.364Z,8.47
2018-07-09T03:43:25.695Z,8.00
2018-07-09T03:45:55.096Z,7.90
2018-07-09T03:48:24.431Z,7.60
2018-07-09T03:50:53.884Z,8.00
2018-07-09T03:53:23.211Z,7.70
2018-07-09T03:55:52.602Z,7.23
2018-07-09T03:58:21.940Z,8.50
2018-07-09T04:00:51.263Z,9.53
2018-07-09T04:03:21.019Z,8.90
2018-07-09T04:05:50.394Z,8.80
2018-07-09T04:08:19.734Z,8.57
2018-07-09T04:10:49.071Z,9.13
2018-07-09T04:13:18.395Z,8.47
2018-07-09T04:15:47.727Z,8.17
2018-07-09T04:18:17.071Z,7.53
2018-07-09T04:20:46.420Z,8.80
2018-07-09T04:23:15.779Z,8.00
2018-07-09T04:25:45.140Z,8.10
2018-07-09T04:28:14.487Z,9.87
2018-07-09T04:30:43.791Z,8.93
2018-07-09T04:33:13.146Z,8.40
2018-07-09T04:35:42.515Z,9.13
2018-07-09T04:38:11.859Z,9.23
2018-07-09T04:40:41.532Z,8.67
2018-07-09T04:43:10.967Z,8.47
2018-07-09T04:45:40.265Z,8.90
2018-07-09T04:48:09.651Z,9.70
2018-07-09T04:50:39.007Z,9.07
2018-07-09T04:53:08.398Z,9.20
2018-07-09T04:55:37.762Z,8.70
2018-07-09T04:58:07.254Z,10.30
2018-07-09T05:00:36.780Z,9.67
2018-07-09T05:03:06.154Z,8.80
2018-07-09T05:05:35.579Z,10.57
2018-07-09T05:08:04.891Z,10.47
2018-07-09T05:10:34.278Z,9.57
2018-07-09T05:13:03.642Z,9.63
2018-07-09T05:15:32.971Z,11.80
2018-07-09T05:18:02.297Z,10.27
2018-07-09T05:20:31.664Z,9.60
2018-07-09T05:23:00.981Z,11.03
2018-07-09T05:25:30.321Z,9.40
2018-07-09T05:27:59.636Z,9.97
2018-07-09T05:30:29.051Z,9.77
2018-07-09T05:32:58.413Z,9.30
2018-07-09T05:35:27.797Z,9.63
2018-07-09T05:37:57.129Z,10.70
2018-07-09T05:40:26.511Z,12.17
2018-07-09T05:42:55.830Z,9.40
2018-07-09T05:45:25.191Z,10.00
2018-07-09T05:47:54.506Z,10.77
2018-07-09T05:50:23.926Z,11.67
2018-07-09T05:52:53.393Z,9.57
2018-07-09T05:55:22.774Z,10.73
2018-07-09T05:57:52.085Z,11.50
2018-07-09T06:00:21.435Z,9.67
2018-07-09T06:02:50.816Z,9.77
2018-07-09T06:05:20.155Z,9.80
2018-07-09T06:07:49.518Z,13.33
2018-07-09T06:10:18.827Z,9.50
2018-07-09T06:12:48.215Z,9.57
2018-07-09T06:15:17.576Z,8.43
2018-07-09T06:17:46.959Z,10.43
2018-07-09T06:20:16.291Z,9.30
2018-07-09T06:22:45.645Z,9.20
2018-07-09T06:25:14.980Z,9.17
2018-07-09T06:27:44.345Z,9.70
2018-07-09T06:30:13.672Z,9.50
2018-07-09T06:32:43.080Z,9.63
2018-07-09T06:35:12.379Z,9.10
2018-07-09T06:37:41.775Z,9.40
2018-07-09T06:40:11.157Z,9.80
2018-07-09T06:42:40.530Z,9.00
2018-07-09T06:45:09.841Z,9.03
2018-07-09T06:47:39.213Z,11.30
2018-07-09T06:50:08.619Z,10.20
2018-07-09T06:52:38.012Z,10.20
2018-07-09T06:55:07.349Z,9.93
2018-07-09T06:57:36.739Z,10.37
2018-07-09T07:00:06.132Z,10.10
2018-07-09T07:02:35.586Z,10.93
2018-07-09T07:05:04.927Z,9.80
2018-07-09T07:07:34.290Z,9.60
2018-07-09T07:10:03.619Z,11.20
2018-07-09T07:12:32.973Z,9.97
2018-07-09T07:15:02.274Z,9.97
2018-07-09T07:17:31.586Z,10.40
2018-07-09T07:20:00.916Z,9.83
2018-07-09T07:22:30.235Z,9.70
2018-07-09T07:24:59.590Z,10.10
2018-07-09T07:27:28.943Z,9.13
2018-07-09T07:29:58.250Z,9.20
2018-07-09T07:32:27.579Z,10.00
2018-07-09T07:34:56.956Z,8.87
2018-07-09T07:37:26.290Z,10.20
2018-07-09T07:39:56.751Z,10.40
2018-07-09T07:42:26.108Z,9.60
2018-07-09T07:44:55.513Z,9.43
2018-07-09T07:47:24.777Z,9.10
2018-07-09T07:49:54.139Z,8.90
2018-07-09T07:52:23.479Z,9.93
2018-07-09T07:54:52.814Z,9.50
2018-07-09T07:57:22.223Z,9.27
2018-07-09T07:59:51.566Z,9.50
2018-07-09T08:02:20.939Z,9.33
2018-07-09T08:04:50.372Z,9.07
2018-07-09T08:07:19.667Z,7.47
2018-07-09T08:09:49.027Z,9.13
2018-07-09T08:14:47.866Z,8.10
2018-07-09T08:17:17.192Z,7.40
2018-07-09T08:19:46.541Z,7.37
2018-07-09T08:22:15.961Z,7.73
2018-07-09T08:24:45.336Z,7.40
2018-07-09T08:27:14.672Z,7.23
2018-07-09T08:29:44.008Z,7.50
2018-07-09T08:32:13.330Z,7.90
2018-07-09T08:34:42.660Z,7.83
2018-07-09T08:37:12.052Z,7.60
2018-07-09T08:39:41.390Z,7.17
2018-07-09T08:42:10.753Z,7.67
2018-07-09T08:44:41.885Z,6.90
2018-07-09T08:47:11.292Z,7.00
2018-07-09T08:49:40.619Z,7.03
2018-07-09T08:52:10.000Z,7.90
2018-07-09T08:54:39.314Z,6.40
2018-07-09T08:57:08.676Z,7.53
2018-07-09T08:59:37.987Z,7.00
2018-07-09T09:02:07.356Z,7.90
2018-07-09T09:04:36.707Z,5.93
2018-07-09T09:07:06.083Z,6.13
2018-07-09T09:09:35.412Z,6.80
2018-07-09T09:12:04.739Z,6.60
2018-07-09T09:14:34.111Z,5.80
2018-07-09T09:17:03.431Z,7.00
2018-07-09T09:19:33.249Z,6.53
2018-07-09T09:22:02.627Z,6.40
2018-07-09T09:24:31.998Z,7.00
2018-07-09T09:27:01.421Z,7.17
2018-07-09T09:29:30.760Z,6.50
2018-07-09T09:32:00.111Z,5.73
2018-07-09T09:34:29.460Z,6.83
2018-07-09T09:36:59.216Z,7.10
2018-07-09T09:39:28.596Z,7.37
2018-07-09T09:41:57.952Z,5.93
2018-07-09T09:44:27.360Z,6.00
2018-07-09T09:46:56.664Z,6.30
2018-07-09T09:49:26.090Z,6.07
2018-07-09T09:51:55.351Z,6.43
2018-07-09T09:54:24.775Z,7.07
2018-07-09T09:56:54.130Z,6.50
2018-07-09T09:59:23.847Z,6.63
2018-07-09T10:01:53.415Z,5.77
2018-07-09T10:04:22.822Z,6.07
2018-07-09T10:06:52.187Z,6.37
2018-07-09T10:09:21.143Z,5.80
2018-07-09T10:11:50.425Z,6.77
2018-07-09T10:14:19.775Z,6.17
2018-07-09T10:16:49.165Z,6.70
2018-07-09T10:19:18.444Z,6.20
2018-07-09T10:21:47.794Z,5.93
2018-07-09T10:24:17.131Z,6.73
2018-07-09T10:26:46.459Z,7.43
2018-07-09T10:29:15.755Z,6.07
2018-07-09T10:31:45.101Z,5.87
2018-07-09T10:34:14.443Z,5.83
2018-07-09T10:36:43.797Z,5.40
2018-07-09T10:39:13.077Z,5.17
2018-07-09T10:41:42.528Z,5.23
2018-07-09T10:44:11.831Z,5.57
2018-07-09T10:46:41.127Z,5.23
2018-07-09T10:49:10.466Z,5.10
2018-07-09T10:51:39.802Z,6.00
2018-07-09T10:54:09.168Z,6.03
2018-07-09T10:56:38.520Z,5.20
2018-07-09T10:59:07.908Z,5.67
2018-07-09T11:01:37.229Z,5.83
2018-07-09T11:04:06.764Z,5.73
2018-07-09T11:06:35.722Z,5.50
2018-07-09T11:09:06.551Z,6.50
2018-07-09T11:11:36.237Z,5.87
2018-07-09T11:14:05.583Z,4.80
2018-07-09T11:16:34.915Z,5.33
2018-07-09T11:19:03.883Z,5.40
2018-07-09T11:21:32.797Z,6.07
2018-07-09T11:24:02.065Z,5.77
2018-07-09T11:26:31.427Z,4.83
2018-07-09T11:29:00.769Z,5.27
2018-07-09T11:31:30.112Z,5.70
2018-07-09T11:34:00.372Z,5.67
2018-07-09T11:36:29.781Z,5.60
2018-07-09T11:38:59.135Z,5.37
2018-07-09T11:41:28.510Z,6.30
2018-07-09T11:43:57.880Z,6.20
2018-07-09T11:46:27.247Z,6.30
2018-07-09T11:48:56.630Z,6.50
2018-07-09T11:51:25.983Z,6.70
2018-07-09T11:53:54.958Z,5.47
2018-07-09T11:56:24.360Z,5.47
2018-07-09T11:58:53.751Z,6.00
2018-07-09T12:01:23.082Z,6.53
2018-07-09T12:03:52.464Z,5.97
2018-07-09T12:06:21.854Z,5.90
2018-07-09T12:08:51.167Z,5.47
2018-07-09T12:11:20.565Z,5.90
2018-07-09T12:13:49.883Z,5.73
2018-07-09T12:16:19.259Z,4.97
2018-07-09T12:18:48.595Z,6.30
2018-07-09T12:21:17.985Z,6.13
2018-07-09T12:23:47.339Z,6.07
2018-07-09T12:26:16.692Z,5.80
2018-07-09T12:28:46.013Z,6.50
2018-07-09T12:31:15.415Z,6.40
2018-07-09T12:33:44.755Z,7.00
2018-07-09T12:36:14.190Z,6.20
2018-07-09T12:38:43.160Z,6.20
2018-07-09T12:41:12.464Z,5.70
2018-07-09T12:43:41.864Z,5.73
2018-07-09T12:46:11.253Z,5.00
2018-07-09T12:48:40.673Z,5.53
2018-07-09T12:51:10.000Z,4.60
2018-07-09T12:53:39.344Z,5.27
2018-07-09T12:56:08.657Z,5.80
2018-07-09T12:58:38.043Z,5.50
2018-07-09T13:01:07.612Z,5.30
2018-07-09T13:03:36.963Z,5.00
2018-07-09T13:06:06.319Z,5.70
2018-07-09T13:08:35.758Z,4.47
2018-07-09T13:11:05.256Z,4.50
2018-07-09T13:13:35.480Z,4.40
2018-07-09T13:16:04.791Z,4.03
2018-07-09T13:18:34.208Z,4.33
2018-07-09T13:21:03.181Z,4.27
2018-07-09T13:23:32.127Z,4.30
2018-07-09T13:26:01.344Z,4.03
2018-07-09T13:28:30.715Z,4.50
2018-07-09T13:31:00.087Z,4.60
2018-07-09T13:33:29.656Z,4.20
2018-07-09T13:35:59.004Z,4.47
2018-07-09T13:38:28.332Z,4.00
2018-07-09T13:40:57.688Z,4.50
2018-07-09T13:43:26.992Z,3.93
2018-07-09T13:45:55.998Z,3.77
2018-07-09T13:48:24.848Z,3.93
2018-07-09T13:50:54.101Z,4.63
2018-07-09T13:53:23.035Z,4.47
2018-07-09T13:55:52.315Z,4.07
2018-07-09T13:58:21.646Z,3.70
2018-07-09T14:00:50.983Z,3.63
2018-07-09T14:03:20.354Z,3.60
2018-07-09T14:05:49.752Z,3.87
2018-07-09T14:08:20.465Z,3.87
2018-07-09T14:10:49.871Z,3.90
2018-07-09T14:13:19.298Z,4.00
2018-07-09T14:15:48.682Z,3.60
2018-07-09T14:18:17.979Z,3.13
2018-07-09T14:20:47.335Z,3.63
2018-07-09T14:23:18.007Z,4.10
2018-07-09T14:25:47.351Z,3.50
2018-07-09T14:28:16.751Z,3.47
2018-07-09T14:30:45.697Z,4.00
2018-07-09T14:33:14.607Z,3.83
2018-07-09T14:35:44.239Z,3.10
2018-07-09T14:38:13.604Z,3.20
2018-07-09T14:40:42.992Z,4.30
2018-07-09T14:43:12.354Z,3.70
2018-07-09T14:45:41.661Z,3.93
2018-07-09T14:48:11.031Z,3.23
2018-07-09T14:50:40.375Z,3.23
2018-07-09T14:53:09.760Z,3.63
2018-07-09T14:55:39.095Z,3.50
2018-07-09T14:58:08.474Z,3.70
2018-07-09T15:00:37.796Z,3.27
2018-07-09T15:03:07.205Z,3.50
2018-07-09T15:05:36.576Z,3.23
2018-07-09T15:08:05.928Z,3.17
2018-07-09T15:10:35.308Z,3.77
2018-07-09T15:13:04.273Z,2.93
2018-07-09T15:15:33.575Z,2.70
2018-07-09T15:18:02.939Z,3.37
2018-07-09T15:20:32.283Z,3.30
2018-07-09T15:23:01.584Z,3.60
2018-07-09T15:25:30.958Z,3.23
2018-07-09T15:28:00.312Z,3.10
2018-07-09T15:30:29.688Z,3.40
2018-07-09T15:32:59.000Z,3.50
2018-07-09T15:35:28.385Z,3.40
2018-07-09T15:37:57.748Z,2.97
2018-07-09T15:40:27.196Z,3.53
2018-07-09T15:42:56.557Z,3.17
2018-07-09T15:45:25.998Z,2.60
2018-07-09T15:47:55.313Z,3.10
2018-07-09T15:50:24.690Z,2.67
2018-07-09T15:52:54.032Z,2.80
2018-07-09T15:55:23.415Z,2.73
2018-07-09T15:57:52.751Z,3.07
2018-07-09T16:00:22.096Z,2.80
2018-07-09T16:02:51.087Z,2.60
2018-07-09T16:05:20.395Z,2.90
2018-07-09T16:07:49.734Z,2.40
2018-07-09T16:10:19.061Z,2.30
2018-07-09T16:12:48.477Z,2.80
2018-07-09T16:15:17.771Z,2.60
2018-07-09T16:17:47.134Z,2.43
2018-07-09T16:20:16.456Z,2.90
2018-07-09T16:22:45.839Z,2.40
2018-07-09T16:25:15.191Z,2.77
2018-07-09T16:27:44.580Z,2.53
2018-07-09T16:30:13.896Z,2.37
2018-07-09T16:32:43.296Z,2.03
2018-07-09T16:35:12.624Z,2.33
2018-07-09T16:37:42.027Z,2.47
2018-07-09T16:40:12.268Z,1.80
2018-07-09T16:42:41.619Z,2.20
2018-07-09T16:45:10.936Z,2.10
2018-07-09T16:47:40.294Z,2.10
2018-07-09T16:50:09.790Z,2.10
2018-07-09T16:52:39.167Z,2.33
2018-07-09T16:55:08.527Z,2.07
2018-07-09T16:57:37.898Z,2.10
2018-07-09T17:00:07.276Z,2.00
2018-07-09T17:02:36.655Z,2.33
2018-07-09T17:05:06.007Z,2.10
2018-07-09T17:07:35.336Z,2.10
2018-07-09T17:10:04.290Z,2.30
2018-07-09T17:12:33.157Z,2.00
2018-07-09T17:15:02.778Z,2.20
2018-07-09T17:17:32.115Z,2.00
2018-07-09T17:20:01.492Z,2.33
2018-07-09T17:22:30.835Z,1.97
2018-07-09T17:25:00.201Z,1.80
2018-07-09T17:27:29.545Z,2.20
2018-07-09T17:29:58.942Z,2.07
2018-07-09T17:32:28.337Z,1.73
2018-07-09T17:34:57.733Z,2.03
2018-07-09T17:37:26.967Z,1.93
2018-07-09T17:39:56.295Z,1.97
2018-07-09T17:42:25.652Z,1.87
2018-07-09T17:44:54.967Z,2.20
2018-07-09T17:47:24.263Z,1.63
2018-07-09T17:49:53.619Z,2.03
2018-07-09T17:52:22.992Z,2.13
2018-07-09T17:54:52.719Z,2.27
2018-07-09T17:57:22.142Z,1.93
2018-07-09T17:59:51.480Z,1.80
2018-07-09T18:02:20.835Z,2.00
2018-07-09T18:04:50.257Z,2.13
2018-07-09T18:07:20.359Z,2.50
2018-07-09T18:09:49.703Z,2.10
2018-07-09T18:12:19.085Z,2.20
2018-07-09T18:14:48.395Z,2.57
2018-07-09T18:17:17.833Z,2.80
2018-07-09T18:19:47.639Z,2.37
2018-07-09T18:22:17.038Z,2.20
2018-07-09T18:24:46.343Z,1.97
2018-07-09T18:27:15.755Z,2.00
2018-07-09T18:29:45.149Z,2.50
2018-07-09T18:32:14.612Z,1.90
2018-07-09T18:34:43.980Z,1.60
2018-07-09T18:37:13.396Z,2.10
2018-07-09T18:39:42.770Z,1.83
2018-07-09T18:42:13.012Z,1.77
2018-07-09T18:44:42.403Z,1.80
2018-07-09T18:47:11.824Z,1.93
2018-07-09T18:49:41.255Z,1.80
2018-07-09T18:52:10.607Z,1.80
2018-07-09T18:54:39.956Z,1.73
2018-07-09T18:57:09.336Z,2.20
2018-07-09T18:59:38.657Z,1.80
2018-07-09T19:02:08.064Z,1.87
2018-07-09T19:04:37.447Z,2.03
2018-07-09T19:07:10.095Z,1.63
2018-07-09T19:09:40.080Z,2.13
2018-07-09T19:12:09.771Z,1.90
2018-07-09T19:14:41.426Z,2.13
2018-07-09T19:18:25.247Z,1.90
2018-07-09T19:21:34.959Z,1.90
2018-07-09T19:24:04.172Z,1.93
2018-07-09T19:26:32.231Z,1.90
2018-07-09T19:29:00.360Z,1.80
2018-07-09T19:31:29.003Z,2.07
2018-07-09T19:33:57.104Z,2.73
2018-07-09T19:36:25.345Z,2.43
2018-07-09T19:38:53.439Z,1.97
2018-07-09T19:41:21.640Z,1.87
2018-07-09T19:43:49.744Z,1.80
2018-07-09T19:46:17.901Z,1.60
2018-07-09T19:48:45.976Z,2.03
2018-07-09T19:51:14.107Z,2.00
2018-07-09T19:53:42.587Z,2.13
2018-07-09T19:56:10.728Z,1.87
2018-07-09T19:58:38.824Z,2.30
2018-07-09T20:01:06.956Z,2.30
2018-07-09T20:03:35.095Z,2.60
2018-07-09T20:06:03.233Z,3.10
2018-07-09T20:08:36.667Z,3.13
2018-07-09T20:11:10.189Z,2.30
2018-07-09T20:14:09.375Z,2.80
2018-07-09T20:16:42.855Z,2.23
2018-07-09T20:19:11.154Z,1.90
2018-07-09T20:21:39.291Z,2.17
2018-07-09T20:24:07.392Z,2.17
2018-07-09T20:26:35.533Z,1.80
2018-07-09T20:29:03.646Z,2.00
2018-07-09T20:31:31.776Z,2.20
2018-07-09T20:33:59.873Z,1.73
2018-07-09T20:36:28.011Z,1.90
2018-07-09T20:38:56.120Z,2.03
2018-07-09T20:41:24.657Z,2.27
2018-07-09T20:43:52.763Z,2.07
2018-07-09T20:46:21.173Z,2.70
2018-07-09T20:48:49.330Z,2.40
2018-07-09T20:51:17.439Z,2.20
2018-07-09T20:53:45.586Z,1.87
2018-07-09T20:56:13.712Z,2.57
2018-07-09T20:58:41.851Z,3.00
2018-07-09T21:01:09.972Z,2.73
2018-07-09T21:03:38.247Z,2.77
2018-07-09T21:06:06.429Z,2.10
2018-07-09T21:08:35.006Z,3.70
2018-07-09T21:11:03.126Z,2.37
2018-07-09T21:13:32.241Z,2.60
2018-07-09T21:16:00.560Z,2.30
2018-07-09T21:18:28.532Z,2.30
2018-07-09T21:20:56.748Z,2.23
2018-07-09T21:23:25.266Z,2.07
2018-07-09T21:25:53.371Z,2.47
2018-07-09T21:28:21.546Z,2.03
2018-07-09T21:30:49.645Z,2.13
2018-07-09T21:33:18.018Z,2.40
2018-07-09T21:35:46.024Z,2.07
2018-07-09T21:38:14.163Z,3.00
2018-07-09T21:40:42.229Z,2.07
2018-07-09T21:43:10.356Z,3.30
2018-07-09T21:45:38.431Z,3.47
2018-07-09T21:48:10.564Z,2.97
2018-07-09T21:50:35.391Z,2.73
2018-07-09T21:53:03.754Z,2.70
2018-07-09T21:55:31.903Z,2.40
2018-07-09T21:57:59.995Z,2.67
2018-07-09T22:00:28.179Z,2.80
2018-07-09T22:02:56.668Z,2.70
2018-07-09T22:05:25.045Z,2.10
2018-07-09T22:07:53.156Z,2.37
2018-07-09T22:10:21.307Z,1.80
2018-07-09T22:12:49.873Z,2.40
2018-07-09T22:15:18.014Z,2.37
2018-07-09T22:17:46.126Z,2.63
2018-07-09T22:20:14.529Z,2.30
2018-07-09T22:22:42.560Z,3.00
2018-07-09T22:25:10.662Z,2.60
2018-07-09T22:27:38.767Z,2.60
2018-07-09T22:30:06.909Z,2.90
2018-07-09T22:32:36.283Z,2.60
2018-07-09T22:35:05.717Z,2.53
2018-07-09T22:37:35.035Z,2.50
2018-07-09T22:40:04.418Z,2.70
2018-07-09T22:42:33.836Z,3.10
2018-07-09T22:45:03.192Z,2.30
2018-07-09T22:47:32.563Z,2.87
2018-07-09T22:50:01.883Z,3.37
2018-07-09T22:52:30.875Z,2.70
2018-07-09T22:55:11.227Z,2.70
2018-07-09T22:57:40.635Z,2.80
2018-07-09T23:00:09.956Z,2.70
2018-07-09T23:02:39.317Z,2.50
2018-07-09T23:05:08.679Z,2.50
2018-07-09T23:07:39.663Z,2.63
2018-07-09T23:10:20.059Z,2.70
2018-07-09T23:13:30.354Z,2.63
2018-07-09T23:16:41.868Z,2.57
2018-07-09T23:19:26.843Z,2.50
2018-07-09T23:22:01.471Z,2.60
2018-07-09T23:24:29.459Z,2.80
2018-07-09T23:26:57.895Z,2.50
2018-07-09T23:29:25.978Z,2.43
2018-07-09T23:31:54.108Z,2.70
2018-07-09T23:34:22.243Z,3.17
2018-07-09T23:36:50.597Z,2.93
2018-07-09T23:39:18.644Z,2.70
2018-07-09T23:41:46.748Z,2.80
2018-07-09T23:44:14.910Z,2.80
2018-07-09T23:46:43.027Z,2.83
2018-07-09T23:49:11.155Z,2.70
2018-07-09T23:51:39.247Z,2.53
2018-07-09T23:54:07.362Z,2.47
2018-07-09T23:58:51.959Z,3.00
